createdAt,value
2023-02-12T00:01:18.602Z,33.70
2023-02-12T00:03:45.232Z,35.63
2023-02-12T00:06:14.190Z,34.07
2023-02-12T00:08:42.471Z,32.23
2023-02-12T00:11:15.756Z,32.97
2023-02-12T00:13:42.852Z,36.60
2023-02-12T00:16:12.347Z,36.77
2023-02-12T00:18:39.212Z,36.80
2023-02-12T00:21:08.878Z,33.20
2023-02-12T00:23:36.615Z,32.13
2023-02-12T00:26:07.650Z,31.43
2023-02-12T00:28:34.507Z,29.97
2023-02-12T00:31:08.773Z,35.60
2023-02-12T00:33:35.660Z,31.57
2023-02-12T00:36:03.133Z,33.33
2023-02-12T00:38:29.619Z,31.00
2023-02-12T00:40:56.456Z,33.73
2023-02-12T00:43:22.970Z,33.43
2023-02-12T00:45:49.678Z,30.97
2023-02-12T00:48:17.925Z,31.87
2023-02-12T00:50:46.665Z,32.20
2023-02-12T00:53:13.868Z,32.90
2023-02-12T00:55:40.460Z,33.33
2023-02-12T00:58:07.928Z,34.67
2023-02-12T01:00:34.901Z,37.70
2023-02-12T01:03:01.501Z,33.53
2023-02-12T01:05:28.104Z,32.43
2023-02-12T01:07:54.684Z,31.90
2023-02-12T01:10:21.331Z,34.00
2023-02-12T01:12:48.483Z,32.83
2023-02-12T01:15:16.576Z,32.47
2023-02-12T01:17:43.502Z,30.77
2023-02-12T01:20:13.717Z,31.30
2023-02-12T01:22:40.438Z,28.13
2023-02-12T01:25:07.528Z,31.27
2023-02-12T01:27:34.141Z,27.07
2023-02-12T01:30:00.888Z,30.37
2023-02-12T01:32:27.525Z,27.13
2023-02-12T01:34:54.160Z,25.10
2023-02-12T01:37:21.725Z,24.73
2023-02-12T01:39:48.222Z,28.00
2023-02-12T01:42:18.870Z,29.00
2023-02-12T01:45:13.914Z,30.07
2023-02-12T01:47:45.330Z,32.93
2023-02-12T01:50:17.274Z,29.63
2023-02-12T01:52:49.622Z,30.03
2023-02-12T01:55:16.867Z,31.23
2023-02-12T01:57:47.250Z,36.57
2023-02-12T02:00:21.186Z,32.47
2023-02-12T02:02:54.724Z,29.73
2023-02-12T02:05:47.968Z,29.97
2023-02-12T02:08:14.892Z,30.73
2023-02-12T02:10:41.615Z,25.97
2023-02-12T02:13:27.079Z,27.00
2023-02-12T02:15:58.744Z,29.33
2023-02-12T02:18:38.847Z,27.13
2023-02-12T02:21:51.462Z,28.37
2023-02-12T02:24:39.609Z,25.67
2023-02-12T02:27:18.784Z,25.37
2023-02-12T02:30:03.297Z,31.97
2023-02-12T02:32:36.040Z,29.10
2023-02-12T02:35:11.794Z,26.93
2023-02-12T02:37:51.534Z,28.30
2023-02-12T02:40:23.462Z,30.97
2023-02-12T02:42:54.282Z,24.07
2023-02-12T02:45:36.555Z,24.47
2023-02-12T02:48:35.596Z,25.97
2023-02-12T02:51:11.934Z,26.93
2023-02-12T02:53:45.304Z,23.93
2023-02-12T02:56:16.898Z,26.13
2023-02-12T02:58:50.694Z,23.77
2023-02-12T03:01:31.178Z,22.80
2023-02-12T03:04:10.902Z,25.90
2023-02-12T03:06:47.093Z,23.43
2023-02-12T03:09:26.202Z,24.13
2023-02-12T03:11:58.500Z,26.50
2023-02-12T03:14:40.368Z,21.90
2023-02-12T03:17:11.588Z,24.30
2023-02-12T03:19:53.285Z,24.53
2023-02-12T03:22:30.982Z,22.00
2023-02-12T03:25:14.827Z,22.90
2023-02-12T03:27:47.144Z,20.97
2023-02-12T03:30:14.213Z,22.90
2023-02-12T03:32:52.429Z,23.67
2023-02-12T03:35:27.764Z,25.17
2023-02-12T03:38:08.881Z,22.50
2023-02-12T03:40:42.185Z,23.63
2023-02-12T03:43:19.010Z,20.93
2023-02-12T03:45:48.342Z,22.53
2023-02-12T03:48:22.013Z,21.87
2023-02-12T03:50:58.247Z,25.13
2023-02-12T03:53:27.053Z,25.03
2023-02-12T03:55:59.875Z,24.53
2023-02-12T03:58:29.491Z,24.10
2023-02-12T04:00:56.943Z,22.30
2023-02-12T04:03:24.332Z,25.67
2023-02-12T04:05:50.807Z,27.20
2023-02-12T04:08:17.461Z,24.13
2023-02-12T04:11:08.077Z,24.77
2023-02-12T04:13:59.712Z,23.43
2023-02-12T04:16:51.065Z,27.37
2023-02-12T04:19:32.613Z,27.60
2023-02-12T04:22:19.952Z,25.20
2023-02-12T04:24:59.766Z,26.03
2023-02-12T04:27:35.408Z,23.23
2023-02-12T04:30:20.843Z,26.43
2023-02-12T04:32:52.861Z,24.37
2023-02-12T04:35:26.333Z,27.53
2023-02-12T04:37:59.011Z,22.80
2023-02-12T04:40:26.603Z,24.43
2023-02-12T04:42:53.850Z,24.50
2023-02-12T04:45:27.816Z,23.13
2023-02-12T04:47:54.353Z,25.57
2023-02-12T04:50:21.294Z,25.00
2023-02-12T04:52:47.882Z,23.97
2023-02-12T04:55:15.279Z,25.30
2023-02-12T04:57:41.962Z,25.27
2023-02-12T05:00:12.754Z,24.27
2023-02-12T05:02:39.246Z,23.77
2023-02-12T05:05:06.972Z,26.67
2023-02-12T05:07:33.641Z,23.67
2023-02-12T05:10:00.330Z,23.27
2023-02-12T05:12:26.927Z,24.53
2023-02-12T05:14:53.777Z,24.77
2023-02-12T05:17:23.427Z,24.17
2023-02-12T05:19:50.782Z,30.07
2023-02-12T05:22:17.987Z,28.03
2023-02-12T05:24:45.393Z,26.07
2023-02-12T05:27:11.924Z,27.07
2023-02-12T05:29:38.512Z,25.87
2023-02-12T05:32:06.899Z,23.40
2023-02-12T05:34:34.538Z,26.30
2023-02-12T05:37:01.233Z,25.97
2023-02-12T05:39:27.911Z,24.70
2023-02-12T05:41:54.403Z,21.87
2023-02-12T05:44:20.904Z,25.07
2023-02-12T05:46:47.593Z,22.93
2023-02-12T05:49:14.473Z,23.87
2023-02-12T05:51:40.968Z,21.37
2023-02-12T05:54:07.849Z,21.27
2023-02-12T05:56:36.993Z,23.10
2023-02-12T05:59:12.599Z,25.23
2023-02-12T06:01:41.698Z,23.87
2023-02-12T06:04:13.764Z,26.23
2023-02-12T06:06:43.272Z,22.50
2023-02-12T06:09:11.293Z,25.13
2023-02-12T06:11:38.402Z,20.87
2023-02-12T06:14:07.283Z,23.20
2023-02-12T06:16:35.044Z,23.50
2023-02-12T06:19:03.779Z,24.63
2023-02-12T06:21:31.948Z,24.17
2023-02-12T06:23:58.806Z,21.60
2023-02-12T06:26:25.790Z,20.67
2023-02-12T06:28:53.353Z,22.30
2023-02-12T06:31:29.602Z,23.97
2023-02-12T06:33:57.857Z,22.97
2023-02-12T06:36:25.081Z,24.17
2023-02-12T06:38:52.235Z,25.93
2023-02-12T06:41:19.563Z,23.80
2023-02-12T06:43:46.245Z,24.53
2023-02-12T06:46:13.125Z,22.57
2023-02-12T06:48:40.164Z,26.30
2023-02-12T06:51:12.490Z,25.40
2023-02-12T06:53:39.512Z,25.27
2023-02-12T06:56:11.300Z,26.70
2023-02-12T06:58:39.910Z,24.70
2023-02-12T07:01:18.472Z,24.60
2023-02-12T07:03:49.861Z,22.20
2023-02-12T07:06:16.883Z,24.53
2023-02-12T07:08:43.448Z,25.17
2023-02-12T07:11:11.077Z,25.63
2023-02-12T07:13:37.744Z,23.30
2023-02-12T07:16:12.503Z,25.13
2023-02-12T07:18:39.392Z,26.57
2023-02-12T07:21:07.972Z,22.70
2023-02-12T07:23:35.489Z,24.47
2023-02-12T07:26:04.694Z,21.63
2023-02-12T07:28:35.101Z,24.00
2023-02-12T07:31:15.286Z,21.67
2023-02-12T07:33:42.652Z,22.40
2023-02-12T07:36:13.101Z,23.97
2023-02-12T07:38:40.104Z,22.27
2023-02-12T07:41:18.774Z,22.17
2023-02-12T07:43:47.934Z,26.73
2023-02-12T07:46:19.080Z,23.03
2023-02-12T07:48:47.099Z,28.77
2023-02-12T07:51:19.124Z,30.17
2023-02-12T07:53:45.655Z,31.20
2023-02-12T07:56:21.122Z,29.53
2023-02-12T07:58:49.085Z,26.13
2023-02-12T08:01:18.052Z,29.73
2023-02-12T08:03:45.662Z,27.50
2023-02-12T08:06:17.817Z,30.43
2023-02-12T08:08:44.933Z,31.90
2023-02-12T08:11:13.289Z,31.33
2023-02-12T08:13:40.398Z,29.33
2023-02-12T08:16:09.713Z,34.73
2023-02-12T08:18:36.299Z,37.27
2023-02-12T08:21:08.062Z,32.90
2023-02-12T08:23:35.109Z,34.00
2023-02-12T08:26:09.150Z,31.13
2023-02-12T08:28:37.428Z,35.70
2023-02-12T08:31:07.540Z,39.77
2023-02-12T08:33:34.081Z,39.63
2023-02-12T08:36:03.514Z,40.37
2023-02-12T08:38:32.242Z,42.27
2023-02-12T08:41:08.062Z,39.97
2023-02-12T08:43:35.283Z,38.27
2023-02-12T08:46:04.537Z,42.27
2023-02-12T08:48:31.541Z,50.40
2023-02-12T08:51:09.580Z,57.97
2023-02-12T08:53:37.444Z,53.63
2023-02-12T08:56:05.471Z,53.07
2023-02-12T08:58:32.601Z,53.53
2023-02-12T09:00:59.467Z,59.30
2023-02-12T09:03:26.167Z,54.37
2023-02-12T09:05:53.235Z,53.57
2023-02-12T09:08:19.985Z,57.77
2023-02-12T09:10:47.247Z,53.97
2023-02-12T09:13:15.252Z,52.87
2023-02-12T09:15:45.080Z,61.47
2023-02-12T09:18:13.536Z,56.40
2023-02-12T09:20:42.693Z,59.73
2023-02-12T09:23:11.610Z,55.90
2023-02-12T09:25:43.278Z,54.07
2023-02-12T09:28:10.977Z,56.17
2023-02-12T09:30:39.081Z,56.70
2023-02-12T09:33:06.831Z,54.03
2023-02-12T09:35:37.926Z,53.23
2023-02-12T09:38:09.011Z,50.73
2023-02-12T09:40:35.868Z,51.13
2023-02-12T09:43:29.247Z,54.67
2023-02-12T09:46:05.190Z,53.67
2023-02-12T09:48:44.203Z,57.30
2023-02-12T09:51:11.484Z,49.33
2023-02-12T09:53:43.430Z,55.43
2023-02-12T09:56:14.961Z,55.27
2023-02-12T09:58:51.016Z,59.03
2023-02-12T10:01:19.712Z,61.73
2023-02-12T10:03:49.061Z,54.13
2023-02-12T10:06:19.532Z,55.33
2023-02-12T10:08:52.439Z,54.20
2023-02-12T10:11:40.135Z,58.77
2023-02-12T10:14:37.852Z,55.30
2023-02-12T10:17:13.548Z,59.53
2023-02-12T10:20:09.573Z,53.83
2023-02-12T10:23:11.611Z,56.33
2023-02-12T10:25:41.141Z,53.43
2023-02-12T10:28:14.956Z,54.33
2023-02-12T10:30:50.167Z,56.33
2023-02-12T10:33:25.734Z,55.83
2023-02-12T10:36:02.881Z,51.00
2023-02-12T10:38:36.290Z,50.30
2023-02-12T10:41:03.126Z,49.57
2023-02-12T10:43:31.596Z,46.10
2023-02-12T10:46:00.936Z,50.83
2023-02-12T10:48:34.911Z,45.47
2023-02-12T10:51:08.020Z,42.50
2023-02-12T10:53:40.489Z,40.00
2023-02-12T10:56:13.496Z,41.37
2023-02-12T10:59:22.952Z,36.00
2023-02-12T11:01:49.885Z,36.33
2023-02-12T11:04:32.318Z,36.47
2023-02-12T11:07:00.914Z,34.30
2023-02-12T11:09:31.124Z,31.63
2023-02-12T11:11:58.274Z,34.33
2023-02-12T11:14:24.946Z,32.27
2023-02-12T11:16:57.891Z,30.60
2023-02-12T11:19:28.853Z,31.27
2023-02-12T11:22:22.106Z,31.23
2023-02-12T11:25:02.566Z,32.50
2023-02-12T11:27:30.964Z,30.57
2023-02-12T11:30:17.850Z,32.43
2023-02-12T11:32:44.771Z,30.93
2023-02-12T11:35:14.056Z,30.37
2023-02-12T11:37:46.054Z,28.77
2023-02-12T11:40:28.328Z,23.50
2023-02-12T11:42:59.168Z,26.50
2023-02-12T11:45:35.638Z,23.87
2023-02-12T11:48:02.925Z,31.20
2023-02-12T11:50:33.477Z,31.87
2023-02-12T11:53:06.920Z,30.37
2023-02-12T11:55:38.108Z,27.70
2023-02-12T11:58:21.365Z,24.90
2023-02-12T12:09:22.140Z,20.17
2023-02-12T12:12:21.964Z,20.33
2023-02-12T12:15:45.120Z,22.60
2023-02-12T12:18:57.641Z,23.57
2023-02-12T12:21:55.039Z,20.83
2023-02-12T12:24:35.081Z,19.47
2023-02-12T12:27:35.662Z,17.90
2023-02-12T12:30:06.773Z,17.60
2023-02-12T12:32:37.743Z,19.47
2023-02-12T12:35:05.477Z,19.97
2023-02-12T12:37:54.722Z,18.17
2023-02-12T12:40:47.843Z,20.93
2023-02-12T12:43:26.477Z,19.70
2023-02-12T12:46:31.150Z,18.87
2023-02-12T12:49:14.159Z,18.03
2023-02-12T12:51:46.625Z,16.70
2023-02-12T12:54:28.735Z,17.07
2023-02-12T12:57:16.862Z,18.57
2023-02-12T13:00:13.455Z,15.77
2023-02-12T13:03:13.083Z,13.90
2023-02-12T13:05:54.298Z,13.97
2023-02-12T13:08:34.028Z,15.37
2023-02-12T13:11:17.858Z,13.87
2023-02-12T13:13:48.347Z,16.67
2023-02-12T13:16:49.371Z,16.20
2023-02-12T13:19:32.630Z,13.70
2023-02-12T13:22:11.002Z,16.60
2023-02-12T13:24:37.617Z,12.37
2023-02-12T13:27:24.981Z,11.57
2023-02-12T13:30:13.846Z,10.53
2023-02-12T13:33:02.529Z,8.63
2023-02-12T13:35:31.275Z,11.63
2023-02-12T13:37:59.041Z,12.47
2023-02-12T13:40:28.848Z,11.13
2023-02-12T13:43:21.365Z,12.07
2023-02-12T13:46:08.320Z,9.07
2023-02-12T13:48:50.087Z,10.30
2023-02-12T13:51:22.682Z,10.87
2023-02-12T13:54:07.002Z,8.87
2023-02-12T13:56:49.943Z,11.40
2023-02-12T13:59:34.619Z,11.87
2023-02-12T14:02:04.636Z,10.63
2023-02-12T14:04:33.875Z,11.63
2023-02-12T14:07:06.795Z,11.70
2023-02-12T14:09:41.169Z,11.87
2023-02-12T14:12:16.921Z,13.57
2023-02-12T14:14:49.818Z,13.73
2023-02-12T14:17:28.509Z,14.10
2023-02-12T14:20:23.722Z,15.93
2023-02-12T14:22:50.102Z,18.17
2023-02-12T14:25:16.517Z,20.63
2023-02-12T14:27:45.064Z,17.60
2023-02-12T14:30:12.073Z,19.20
2023-02-12T14:32:45.060Z,18.70
2023-02-12T14:35:30.097Z,20.33
2023-02-12T14:38:02.511Z,21.47
2023-02-12T14:40:36.496Z,20.83
2023-02-12T14:43:19.279Z,20.27
2023-02-12T14:45:45.755Z,21.40
2023-02-12T14:48:41.383Z,21.33
2023-02-12T14:51:17.621Z,22.60
2023-02-12T14:53:46.974Z,22.87
2023-02-12T14:56:13.777Z,25.33
2023-02-12T14:58:40.847Z,25.03
2023-02-12T15:01:08.546Z,23.80
2023-02-12T15:03:43.338Z,25.50
2023-02-12T15:06:16.702Z,26.00
2023-02-12T15:09:02.862Z,25.80
2023-02-12T15:11:42.969Z,27.40
2023-02-12T15:14:22.068Z,27.90
2023-02-12T15:17:06.786Z,26.67
2023-02-12T15:20:02.538Z,30.43
2023-02-12T15:22:36.738Z,29.10
2023-02-12T15:25:25.419Z,27.90
2023-02-12T15:27:55.681Z,29.50
2023-02-12T15:30:32.296Z,28.30
2023-02-12T15:33:03.388Z,29.97
2023-02-12T15:35:33.335Z,32.20
2023-02-12T15:38:01.348Z,28.70
2023-02-12T15:40:29.987Z,28.53
2023-02-12T15:42:57.611Z,27.60
2023-02-12T15:45:28.494Z,32.30
2023-02-12T15:48:09.429Z,31.63
2023-02-12T15:51:10.031Z,29.70
2023-02-12T15:53:39.080Z,30.17
2023-02-12T15:56:13.154Z,30.63
2023-02-12T15:58:48.144Z,29.03
2023-02-12T16:01:26.334Z,32.50
2023-02-12T16:03:55.883Z,30.87
2023-02-12T16:06:24.978Z,29.90
2023-02-12T16:09:15.824Z,33.23
2023-02-12T16:11:47.175Z,29.30
2023-02-12T16:14:23.233Z,31.30
2023-02-12T16:16:52.887Z,30.77
2023-02-12T16:19:21.271Z,31.57
2023-02-12T16:21:51.947Z,32.13
2023-02-12T16:24:30.459Z,32.97
2023-02-12T16:27:08.334Z,29.00
2023-02-12T16:29:43.739Z,32.67
2023-02-12T16:32:39.558Z,31.87
2023-02-12T16:35:12.141Z,31.07
2023-02-12T16:37:38.623Z,31.27
2023-02-12T16:40:14.394Z,33.60
2023-02-12T16:42:47.326Z,32.83
2023-02-12T16:45:29.655Z,33.07
2023-02-12T16:48:07.997Z,35.10
2023-02-12T16:50:57.653Z,31.13
2023-02-12T16:53:36.308Z,33.70
2023-02-12T16:56:04.708Z,34.13
2023-02-12T16:58:31.344Z,34.07
2023-02-12T17:01:01.384Z,35.57
2023-02-12T17:03:34.150Z,33.07
2023-02-12T17:06:00.935Z,33.40
2023-02-12T17:08:27.538Z,32.83
2023-02-12T17:10:54.122Z,35.50
2023-02-12T17:13:20.975Z,37.23
2023-02-12T17:15:56.683Z,37.80
2023-02-12T17:18:25.147Z,36.03
2023-02-12T17:20:56.180Z,38.40
2023-02-12T17:23:23.629Z,38.33
2023-02-12T17:25:50.582Z,39.60
2023-02-12T17:28:17.258Z,38.23
2023-02-12T17:30:45.102Z,38.77
2023-02-12T17:33:11.726Z,38.63
2023-02-12T17:35:39.386Z,34.67
2023-02-12T17:38:06.905Z,35.50
2023-02-12T17:40:36.932Z,33.00
2023-02-12T17:43:07.083Z,36.47
2023-02-12T17:45:33.897Z,33.57
2023-02-12T17:48:00.993Z,38.90
2023-02-12T17:50:27.566Z,40.67
2023-02-12T17:52:54.307Z,39.70
2023-02-12T17:55:20.845Z,42.53
2023-02-12T17:57:51.953Z,48.27
2023-02-12T18:00:19.307Z,49.73
2023-02-12T18:02:45.999Z,54.07
2023-02-12T18:05:12.953Z,49.73
2023-02-12T18:07:40.054Z,39.93
2023-02-12T18:10:07.614Z,39.80
2023-02-12T18:12:35.181Z,37.97
2023-02-12T18:15:03.332Z,35.60
2023-02-12T18:17:30.446Z,41.47
2023-02-12T18:19:56.904Z,42.77
2023-02-12T18:22:23.744Z,47.63
2023-02-12T18:24:50.309Z,53.90
2023-02-12T18:27:18.542Z,62.57
2023-02-12T18:29:45.264Z,58.23
2023-02-12T18:32:15.861Z,56.77
2023-02-12T18:34:43.517Z,54.83
2023-02-12T18:37:12.078Z,53.27
2023-02-12T18:39:38.789Z,51.43
2023-02-12T18:42:05.736Z,56.37
2023-02-12T18:44:32.466Z,63.57
2023-02-12T18:47:00.148Z,57.93
2023-02-12T18:49:27.976Z,59.93
2023-02-12T18:51:55.011Z,52.87
2023-02-12T18:54:21.564Z,59.03
2023-02-12T18:56:51.393Z,60.53
2023-02-12T18:59:19.261Z,49.63
2023-02-12T19:01:47.208Z,52.10
2023-02-12T19:04:15.951Z,45.37
2023-02-12T19:06:51.179Z,47.13
2023-02-12T19:09:20.749Z,53.13
2023-02-12T19:11:49.838Z,46.90
2023-02-12T19:14:18.339Z,53.23
2023-02-12T19:16:45.696Z,45.70
2023-02-12T19:19:13.192Z,51.53
2023-02-12T19:21:39.711Z,48.73
2023-02-12T19:24:07.301Z,53.43
2023-02-12T19:26:36.292Z,48.63
2023-02-12T19:29:04.793Z,65.07
2023-02-12T19:31:37.529Z,48.10
2023-02-12T19:34:07.214Z,54.50
2023-02-12T19:36:36.267Z,61.27
2023-02-12T19:39:04.910Z,58.63
2023-02-12T19:41:32.787Z,94.53
2023-02-12T19:44:01.758Z,82.93
2023-02-12T19:46:30.951Z,142.30
2023-02-12T19:49:00.262Z,137.63
2023-02-12T19:51:29.537Z,96.10
2023-02-12T19:54:04.314Z,72.17
2023-02-12T19:56:31.252Z,53.23
2023-02-12T19:58:58.461Z,51.77
2023-02-12T20:01:25.842Z,56.77
2023-02-12T20:03:52.786Z,56.67
2023-02-12T20:06:22.339Z,58.50
2023-02-12T20:08:49.527Z,54.63
2023-02-12T20:11:19.717Z,63.10
2023-02-12T20:13:46.232Z,55.13
2023-02-12T20:16:16.105Z,67.27
2023-02-12T20:18:44.052Z,63.33
2023-02-12T20:21:14.341Z,60.47
2023-02-12T20:23:41.449Z,80.27
2023-02-12T20:26:09.747Z,79.23
2023-02-12T20:28:37.292Z,57.13
2023-02-12T20:31:19.465Z,52.40
2023-02-12T20:33:46.639Z,49.47
2023-02-12T20:36:14.685Z,50.83
2023-02-12T20:38:42.625Z,58.43
2023-02-12T20:41:10.450Z,53.27
2023-02-12T20:43:37.784Z,50.53
2023-02-12T20:46:06.634Z,55.07
2023-02-12T20:48:34.075Z,55.83
2023-02-12T20:51:09.963Z,53.47
2023-02-12T20:53:36.632Z,57.17
2023-02-12T20:56:06.028Z,54.80
2023-02-12T20:58:32.596Z,52.90
2023-02-12T21:01:17.500Z,54.23
2023-02-12T21:03:45.144Z,50.37
2023-02-12T21:06:11.906Z,53.17
2023-02-12T21:08:40.435Z,52.33
2023-02-12T21:11:11.882Z,52.03
2023-02-12T21:13:42.185Z,53.17
2023-02-12T21:16:12.708Z,46.67
2023-02-12T21:18:39.724Z,53.00
2023-02-12T21:21:08.481Z,50.70
2023-02-12T21:23:35.547Z,47.97
2023-02-12T21:26:08.045Z,48.30
2023-02-12T21:28:35.956Z,51.63
2023-02-12T21:31:16.499Z,49.60
2023-02-12T21:33:46.124Z,49.37
2023-02-12T21:36:15.408Z,49.73
2023-02-12T21:38:43.917Z,46.77
2023-02-12T21:41:17.533Z,50.77
2023-02-12T21:43:47.460Z,51.53
2023-02-12T21:46:18.271Z,52.53
2023-02-12T21:48:45.548Z,51.83
2023-02-12T21:51:20.817Z,48.97
2023-02-12T21:53:49.321Z,49.77
2023-02-12T21:56:16.481Z,50.33
2023-02-12T21:58:43.891Z,48.93
2023-02-12T22:01:13.676Z,54.50
2023-02-12T22:03:40.239Z,51.47
2023-02-12T22:06:08.806Z,46.73
2023-02-12T22:08:36.066Z,49.33
2023-02-12T22:11:04.565Z,51.70
2023-02-12T22:13:31.389Z,48.03
2023-02-12T22:15:58.231Z,54.13
2023-02-12T22:18:24.716Z,52.27
2023-02-12T22:20:51.727Z,52.90
2023-02-12T22:23:18.491Z,48.87
2023-02-12T22:25:45.038Z,51.70
2023-02-12T22:28:11.756Z,49.03
2023-02-12T22:30:39.584Z,52.40
2023-02-12T22:33:06.042Z,55.20
2023-02-12T22:35:32.511Z,53.93
2023-02-12T22:37:58.958Z,54.23
2023-02-12T22:40:25.416Z,54.13
2023-02-12T22:42:51.847Z,52.47
2023-02-12T22:45:18.872Z,53.10
2023-02-12T22:47:45.328Z,53.33
2023-02-12T22:50:11.937Z,50.13
2023-02-12T22:52:38.423Z,47.30
2023-02-12T22:55:05.265Z,46.13
2023-02-12T22:57:31.965Z,50.90
2023-02-12T22:59:58.728Z,47.57
2023-02-12T23:02:25.203Z,52.80
2023-02-12T23:04:51.672Z,45.40
2023-02-12T23:07:18.140Z,49.83
2023-02-12T23:09:44.616Z,47.47
2023-02-12T23:12:11.275Z,42.80
2023-02-12T23:14:37.857Z,46.30
2023-02-12T23:17:04.659Z,40.93
2023-02-12T23:19:31.445Z,47.57
2023-02-12T23:21:59.168Z,44.97
2023-02-12T23:24:26.056Z,44.57
2023-02-12T23:26:53.983Z,44.83
2023-02-12T23:29:21.030Z,43.30
2023-02-12T23:31:47.694Z,41.07
2023-02-12T23:34:14.280Z,41.67
2023-02-12T23:36:40.990Z,43.00
2023-02-12T23:39:09.614Z,43.10
2023-02-12T23:41:36.555Z,41.63
2023-02-12T23:44:03.924Z,42.13
2023-02-12T23:46:31.142Z,45.40
2023-02-12T23:48:58.001Z,44.03
2023-02-12T23:51:24.921Z,43.90
2023-02-12T23:53:51.912Z,44.23
2023-02-12T23:56:18.407Z,41.60
2023-02-12T23:58:45.599Z,43.37
